Time;durP1;ratioP1;P1;durP2;ratioP2;P2;SDS_P1;SDS_P2;PMS_P1;PMS_P2;Temp;Humidity;BMP_temperature;BMP_pressure;BME280_temperature;BME280_humidity;BME280_pressure;Samples;Min_cycle;Max_cycle;Signal;HPM_P1;HPM_P2
2024/03/08 00:01:49;;;;;;;20.23;8.23;;;1.80;99.90;;;;;;5040326;28;20501;-67
2024/03/08 00:04:15;;;;;;;13.70;7.85;;;1.70;99.90;;;;;;5043541;28;20064;-67
2024/03/08 00:06:41;;;;;;;17.88;8.77;;;1.70;99.90;;;;;;5044263;28;20033;-67
2024/03/08 00:09:10;;;;;;;14.85;8.32;;;1.70;99.90;;;;;;5045482;28;20021;-66
2024/03/08 00:11:35;;;;;;;14.18;7.47;;;1.70;99.90;;;;;;5044335;28;20494;-66
2024/03/08 00:14:01;;;;;;;15.52;8.57;;;1.80;99.90;;;;;;5046259;28;20409;-67
2024/03/08 00:16:27;;;;;;;18.00;8.05;;;1.70;99.90;;;;;;5043463;28;20283;-67
2024/03/08 00:18:53;;;;;;;14.30;7.90;;;1.60;99.90;;;;;;5046034;28;20036;-66
2024/03/08 00:21:18;;;;;;;15.23;8.90;;;1.60;99.90;;;;;;5044452;28;20039;-67
2024/03/08 00:23:44;;;;;;;15.80;8.27;;;1.60;99.90;;;;;;5044881;28;20032;-66
2024/03/08 00:26:09;;;;;;;17.42;8.38;;;1.60;99.90;;;;;;5042140;28;20029;-67
2024/03/08 00:28:36;;;;;;;17.88;9.15;;;1.50;99.90;;;;;;5039409;28;20032;-66
2024/03/08 00:31:01;;;;;;;14.13;7.82;;;1.60;99.90;;;;;;5040671;28;20398;-66
2024/03/08 00:33:30;;;;;;;16.52;7.75;;;1.50;99.90;;;;;;5043619;28;20036;-67
2024/03/08 00:35:57;;;;;;;14.25;7.97;;;1.40;99.90;;;;;;5042616;28;20116;-68
2024/03/08 00:38:22;;;;;;;16.08;8.27;;;1.40;99.90;;;;;;5041912;28;20071;-69
2024/03/08 00:40:48;;;;;;;17.85;9.27;;;1.50;99.90;;;;;;5036527;28;20506;-68
2024/03/08 00:43:15;;;;;;;14.93;8.73;;;1.40;99.90;;;;;;5043536;28;20502;-69
2024/03/08 00:45:42;;;;;;;16.60;8.70;;;1.40;99.90;;;;;;5042439;28;20460;-68
2024/03/08 00:48:08;;;;;;;17.63;9.77;;;1.50;99.90;;;;;;5043846;28;20375;-67
2024/03/08 00:50:34;;;;;;;13.55;7.72;;;1.50;99.90;;;;;;5044428;28;20471;-69
2024/03/08 00:53:00;;;;;;;11.73;7.72;;;1.40;99.90;;;;;;5043085;28;20048;-69
2024/03/08 00:55:26;;;;;;;16.10;9.38;;;1.40;99.90;;;;;;5043374;28;20224;-69
2024/03/08 00:57:53;;;;;;;12.05;7.18;;;1.40;99.90;;;;;;5043579;28;20146;-68
2024/03/08 01:00:20;;;;;;;18.58;8.35;;;1.40;99.90;;;;;;5043395;28;20494;-67
2024/03/08 01:02:46;;;;;;;14.23;7.20;;;1.40;99.90;;;;;;5041384;28;20025;-68
2024/03/08 01:05:11;;;;;;;15.68;8.60;;;1.40;99.90;;;;;;5044447;28;20127;-70
2024/03/08 01:07:37;;;;;;;15.00;8.32;;;1.40;99.90;;;;;;5042922;28;20029;-68
2024/03/08 01:10:03;;;;;;;14.95;7.97;;;1.40;99.90;;;;;;5043284;28;20493;-68
2024/03/08 01:12:29;;;;;;;13.70;8.68;;;1.30;99.90;;;;;;5038595;28;20028;-66
2024/03/08 01:14:56;;;;;;;15.20;8.20;;;1.40;99.90;;;;;;5042824;28;20022;-68
2024/03/08 01:17:22;;;;;;;15.50;7.93;;;1.30;99.90;;;;;;5042522;28;20028;-68
2024/03/08 01:19:47;;;;;;;15.43;8.20;;;1.30;99.90;;;;;;5044066;28;20086;-67
2024/03/08 01:22:13;;;;;;;14.50;7.50;;;1.30;99.90;;;;;;5040740;28;20025;-66
2024/03/08 01:24:39;;;;;;;12.88;7.82;;;1.30;99.90;;;;;;5039722;28;20025;-68
2024/03/08 01:27:05;;;;;;;16.70;8.75;;;1.30;99.90;;;;;;5043391;28;20144;-70
2024/03/08 01:29:30;;;;;;;16.70;8.23;;;1.30;99.90;;;;;;5041931;28;20239;-72
2024/03/08 01:31:56;;;;;;;16.38;8.70;;;1.30;99.90;;;;;;5042671;28;20043;-68
2024/03/08 01:34:25;;;;;;;25.95;8.40;;;1.20;99.90;;;;;;5041468;28;20021;-67
2024/03/08 01:36:51;;;;;;;13.25;8.50;;;1.10;99.90;;;;;;5040359;28;20370;-67
2024/03/08 01:39:17;;;;;;;12.98;7.45;;;1.10;99.90;;;;;;5043097;28;20028;-67
2024/03/08 01:41:42;;;;;;;13.55;7.43;;;1.10;99.90;;;;;;5043373;28;20230;-67
2024/03/08 01:44:09;;;;;;;15.20;7.70;;;1.10;99.90;;;;;;5040137;28;20397;-68
2024/03/08 01:46:35;;;;;;;15.70;7.75;;;1.10;99.90;;;;;;5042014;28;20478;-67
2024/03/08 01:49:01;;;;;;;17.67;9.75;;;1.10;99.90;;;;;;5036548;28;20029;-66
2024/03/08 01:51:29;;;;;;;15.02;7.85;;;1.10;99.90;;;;;;5040658;28;20036;-66
2024/03/08 01:53:57;;;;;;;13.43;7.25;;;1.00;99.90;;;;;;5041211;28;20044;-67
2024/03/08 01:56:25;;;;;;;11.20;6.47;;;1.00;99.90;;;;;;5041015;28;20037;-68
2024/03/08 01:58:51;;;;;;;15.25;7.63;;;1.00;99.90;;;;;;5038254;28;20040;-67
2024/03/08 02:01:18;;;;;;;16.58;8.55;;;0.90;99.90;;;;;;5038099;28;20033;-66
2024/03/08 02:03:44;;;;;;;14.93;7.60;;;0.90;99.90;;;;;;5038633;28;20411;-66
2024/03/08 02:06:16;;;;;;;13.50;8.75;;;1.00;99.90;;;;;;5042669;28;20025;-67
2024/03/08 02:08:46;;;;;;;16.75;8.95;;;1.00;99.90;;;;;;5043419;28;20433;-67
2024/03/08 02:11:12;;;;;;;18.25;8.32;;;1.00;99.90;;;;;;5043485;28;20057;-68
2024/03/08 02:13:38;;;;;;;16.52;8.02;;;0.90;99.90;;;;;;5043265;28;20029;-67
2024/03/08 02:16:07;;;;;;;15.55;8.15;;;0.90;99.90;;;;;;5043931;28;20072;-67
2024/03/08 02:18:34;;;;;;;17.83;9.20;;;1.00;99.90;;;;;;5040627;28;20028;-67
2024/03/08 02:21:01;;;;;;;16.70;8.30;;;1.00;99.90;;;;;;5044445;28;20025;-67
2024/03/08 02:23:27;;;;;;;18.08;9.10;;;1.00;99.90;;;;;;5040440;28;20025;-68
2024/03/08 02:25:53;;;;;;;13.85;7.63;;;0.90;99.90;;;;;;5042453;28;20025;-67
2024/03/08 02:28:20;;;;;;;14.93;8.77;;;0.90;99.90;;;;;;5040616;28;20028;-68
2024/03/08 02:30:47;;;;;;;18.70;8.27;;;1.00;99.90;;;;;;5041755;28;20494;-68
2024/03/08 02:33:17;;;;;;;19.30;9.82;;;0.90;99.90;;;;;;5042759;28;20540;-67
2024/03/08 02:35:47;;;;;;;18.60;9.63;;;1.00;99.90;;;;;;5040251;28;20568;-66
2024/03/08 02:38:16;;;;;;;13.05;8.07;;;0.90;99.90;;;;;;5038822;28;20045;-68
2024/03/08 02:40:43;;;;;;;14.77;7.32;;;0.90;99.90;;;;;;5041734;28;20132;-67
2024/03/08 02:43:09;;;;;;;19.63;7.82;;;0.90;99.90;;;;;;5039765;28;20041;-67
2024/03/08 02:45:35;;;;;;;12.55;7.35;;;0.90;99.90;;;;;;5042402;28;20415;-67
2024/03/08 02:48:00;;;;;;;14.32;6.47;;;0.80;99.90;;;;;;5040002;28;20036;-67
2024/03/08 02:50:26;;;;;;;17.95;9.88;;;0.80;99.90;;;;;;5044777;28;20021;-66
2024/03/08 02:52:52;;;;;;;18.08;9.13;;;0.90;99.90;;;;;;5048388;28;20148;-69
2024/03/08 02:55:18;;;;;;;15.70;8.73;;;0.90;99.90;;;;;;5046114;28;20029;-67
2024/03/08 02:57:44;;;;;;;18.85;9.98;;;0.90;99.90;;;;;;5049092;28;20471;-68
2024/03/08 03:00:10;;;;;;;15.38;7.53;;;0.90;99.90;;;;;;5047176;28;20040;-67
2024/03/08 03:02:37;;;;;;;13.50;7.50;;;0.90;99.90;;;;;;5050214;28;20037;-69
2024/03/08 03:05:06;;;;;;;14.93;8.02;;;0.80;99.90;;;;;;5043333;28;20026;-68
2024/03/08 03:07:34;;;;;;;13.88;8.50;;;0.80;99.90;;;;;;5050600;28;20410;-68
2024/03/08 03:10:00;;;;;;;16.73;9.27;;;0.80;99.90;;;;;;5046823;28;20418;-68
2024/03/08 03:12:30;;;;;;;14.30;7.75;;;0.80;99.90;;;;;;5049342;28;20117;-66
2024/03/08 03:14:56;;;;;;;15.85;8.00;;;0.80;99.90;;;;;;5047443;28;20036;-68
2024/03/08 03:17:26;;;;;;;15.05;8.90;;;0.80;99.90;;;;;;5051403;28;20506;-67
2024/03/08 03:19:52;;;;;;;17.77;9.32;;;0.70;99.90;;;;;;5048040;28;20094;-66
2024/03/08 03:22:19;;;;;;;17.98;8.57;;;0.70;99.90;;;;;;5049665;28;20025;-68
2024/03/08 03:24:46;;;;;;;16.73;8.88;;;0.70;99.90;;;;;;5048421;28;20463;-67
2024/03/08 03:27:12;;;;;;;18.92;9.18;;;0.70;99.90;;;;;;5045848;28;20029;-67
2024/03/08 03:29:45;;;;;;;15.88;8.73;;;0.70;99.90;;;;;;5046591;28;20331;-66
2024/03/08 03:32:14;;;;;;;20.50;8.93;;;0.70;99.90;;;;;;5046853;28;20135;-67
2024/03/08 03:34:41;;;;;;;22.65;9.80;;;0.70;99.90;;;;;;5050122;28;20032;-68
2024/03/08 03:37:13;;;;;;;17.00;8.65;;;0.70;99.90;;;;;;5045535;28;20509;-66
2024/03/08 03:39:48;;;;;;;16.25;8.85;;;0.70;99.90;;;;;;5045920;28;20055;-67
2024/03/08 03:42:18;;;;;;;16.45;9.10;;;0.60;99.90;;;;;;5048745;28;20386;-67
2024/03/08 03:44:47;;;;;;;18.15;9.35;;;0.60;99.90;;;;;;5044838;28;20037;-68
2024/03/08 03:47:14;;;;;;;16.67;8.65;;;0.70;99.90;;;;;;5047864;28;20029;-67
2024/03/08 03:49:42;;;;;;;16.23;9.30;;;0.70;99.90;;;;;;5043573;28;20032;-66
2024/03/08 03:52:08;;;;;;;15.43;9.15;;;0.70;99.90;;;;;;5041340;28;20035;-67
2024/03/08 03:54:34;;;;;;;15.02;8.00;;;0.70;99.90;;;;;;5048351;28;20170;-67
2024/03/08 03:57:00;;;;;;;24.10;10.38;;;0.70;99.90;;;;;;5048867;28;20415;-68
2024/03/08 03:59:26;;;;;;;17.35;8.60;;;0.70;99.90;;;;;;5050836;28;20025;-67
2024/03/08 04:01:53;;;;;;;16.77;9.38;;;0.70;99.90;;;;;;5042989;28;20041;-67
2024/03/08 04:04:18;;;;;;;19.90;10.55;;;0.70;99.90;;;;;;5045472;28;20025;-66
2024/03/08 04:06:44;;;;;;;18.75;10.00;;;0.80;99.90;;;;;;5042703;28;20430;-67
2024/03/08 04:09:12;;;;;;;20.05;9.60;;;0.80;99.90;;;;;;5043498;28;20517;-66
2024/03/08 04:11:38;;;;;;;18.30;8.05;;;0.80;99.90;;;;;;5044613;28;20109;-66
2024/03/08 04:14:04;;;;;;;17.73;8.80;;;0.90;99.90;;;;;;5044724;28;20082;-67
2024/03/08 04:16:31;;;;;;;16.27;10.05;;;0.90;99.90;;;;;;5043615;28;20033;-67
2024/03/08 04:18:57;;;;;;;19.67;10.45;;;0.90;99.90;;;;;;5043271;28;20033;-68
2024/03/08 04:21:23;;;;;;;19.10;9.15;;;1.00;99.90;;;;;;5044404;28;20086;-67
2024/03/08 04:23:48;;;;;;;16.08;9.40;;;0.90;99.90;;;;;;5041971;28;20090;-67
2024/03/08 04:26:14;;;;;;;23.20;11.65;;;1.00;99.90;;;;;;5042126;28;20021;-67
2024/03/08 04:28:39;;;;;;;19.15;9.18;;;1.00;99.90;;;;;;5042959;28;20036;-69
2024/03/08 04:31:06;;;;;;;18.17;9.30;;;1.00;99.90;;;;;;5043156;28;20039;-68
2024/03/08 04:33:32;;;;;;;27.17;11.75;;;1.00;99.90;;;;;;5044041;28;20144;-67
2024/03/08 04:35:58;;;;;;;20.92;11.10;;;1.00;99.90;;;;;;5045219;28;20021;-69
2024/03/08 04:38:24;;;;;;;21.30;11.35;;;1.00;99.90;;;;;;5041010;28;20022;-67
2024/03/08 04:40:50;;;;;;;15.52;9.55;;;1.00;99.90;;;;;;5045352;28;20037;-68
2024/03/08 04:43:18;;;;;;;22.77;10.73;;;1.00;99.90;;;;;;5045009;28;20036;-67
2024/03/08 04:45:44;;;;;;;19.77;10.38;;;1.00;99.90;;;;;;5041823;28;20123;-69
2024/03/08 04:48:11;;;;;;;22.90;10.18;;;1.00;99.90;;;;;;5042584;28;20865;-67
2024/03/08 04:50:38;;;;;;;16.33;9.68;;;1.00;99.90;;;;;;5045259;28;20367;-68
2024/03/08 04:53:07;;;;;;;19.23;10.32;;;1.00;99.90;;;;;;5042527;28;20359;-68
2024/03/08 04:55:34;;;;;;;24.08;11.30;;;1.10;99.90;;;;;;5039747;28;20017;-67
2024/03/08 04:57:59;;;;;;;22.25;10.63;;;1.00;99.90;;;;;;5043433;28;20112;-69
2024/03/08 05:00:25;;;;;;;17.73;10.50;;;1.10;99.90;;;;;;5043687;28;20108;-68
2024/03/08 05:02:53;;;;;;;18.40;10.02;;;1.10;99.90;;;;;;5041914;28;20538;-66
2024/03/08 05:05:19;;;;;;;22.33;10.65;;;1.10;99.90;;;;;;5046150;28;20031;-67
2024/03/08 05:07:45;;;;;;;20.50;9.80;;;1.10;99.90;;;;;;5044953;28;20205;-68
2024/03/08 05:10:11;;;;;;;24.83;11.43;;;1.10;99.90;;;;;;5041575;28;20027;-68
2024/03/08 05:12:38;;;;;;;16.40;9.63;;;1.10;99.90;;;;;;5042922;28;20028;-67
2024/03/08 05:15:05;;;;;;;23.70;12.88;;;1.10;99.90;;;;;;5042716;28;20268;-66
2024/03/08 05:17:31;;;;;;;19.38;11.00;;;1.10;99.90;;;;;;5045265;28;20383;-70
2024/03/08 05:19:56;;;;;;;20.20;11.02;;;1.10;99.90;;;;;;5044323;28;20429;-69
2024/03/08 05:22:22;;;;;;;23.27;10.60;;;1.10;99.90;;;;;;5041341;28;20121;-68
2024/03/08 05:24:48;;;;;;;20.90;11.18;;;1.10;99.90;;;;;;5044466;28;20391;-67
2024/03/08 05:27:14;;;;;;;19.23;10.68;;;1.10;99.90;;;;;;5040423;28;20086;-67
2024/03/08 05:29:39;;;;;;;21.30;9.95;;;1.10;99.90;;;;;;5040497;28;20044;-67
2024/03/08 05:32:06;;;;;;;19.90;10.07;;;1.10;99.90;;;;;;5041166;28;20032;-70
2024/03/08 05:34:32;;;;;;;21.70;12.32;;;1.10;99.90;;;;;;5035765;28;20029;-70
2024/03/08 05:36:58;;;;;;;17.25;10.15;;;1.10;99.90;;;;;;5043406;28;20570;-68
2024/03/08 05:39:24;;;;;;;19.40;11.18;;;1.10;99.90;;;;;;5041158;28;20044;-68
2024/03/08 05:41:50;;;;;;;22.70;11.60;;;1.10;99.90;;;;;;5037109;28;20025;-67
2024/03/08 05:44:19;;;;;;;21.88;11.10;;;1.10;99.90;;;;;;5042518;28;20208;-67
2024/03/08 05:46:46;;;;;;;23.63;11.75;;;1.10;99.90;;;;;;5039074;28;20048;-67
2024/03/08 05:49:13;;;;;;;21.85;11.73;;;1.10;99.90;;;;;;5036636;28;20029;-68
2024/03/08 05:51:39;;;;;;;25.00;12.60;;;1.20;99.90;;;;;;5041695;28;20382;-67
2024/03/08 05:54:08;;;;;;;20.35;10.20;;;1.20;99.90;;;;;;5036345;28;20514;-68
2024/03/08 05:56:36;;;;;;;25.70;12.02;;;1.20;99.90;;;;;;5040777;28;20482;-69
2024/03/08 05:59:02;;;;;;;26.73;12.02;;;1.10;99.90;;;;;;5039630;28;20127;-67
2024/03/08 06:01:31;;;;;;;22.17;10.23;;;1.10;99.90;;;;;;5035200;28;20498;-68
2024/03/08 06:03:57;;;;;;;;;;;1.10;99.90;;;;;;5040662;28;20028;-69
2024/03/08 06:06:26;;;;;;;20.98;11.85;;;1.20;99.90;;;;;;5040639;28;20380;-67
2024/03/08 06:09:46;;;;;;;20.77;11.55;;;1.20;99.90;;;;;;5037760;28;20033;-69
2024/03/08 06:13:12;;;;;;;;;;;;;;;;;;;;;
2024/03/08 06:16:15;;;;;;;21.40;10.15;;;1.20;99.90;;;;;;5034690;28;20039;-67
2024/03/08 06:18:41;;;;;;;20.70;11.57;;;1.20;99.90;;;;;;5038107;28;20106;-70
2024/03/08 06:21:13;;;;;;;21.63;10.02;;;1.20;99.90;;;;;;5039825;28;20021;-68
2024/03/08 06:23:39;;;;;;;26.85;12.93;;;1.30;99.90;;;;;;5039702;28;20525;-68
2024/03/08 06:26:05;;;;;;;24.10;10.85;;;1.30;99.90;;;;;;5037636;28;20017;-68
2024/03/08 06:28:40;;;;;;;19.73;10.85;;;1.30;99.90;;;;;;5035192;28;20118;-69
2024/03/08 06:31:19;;;;;;;25.88;12.52;;;1.30;99.90;;;;;;5025172;28;20040;-70
2024/03/08 06:33:54;;;;;;;22.05;11.55;;;1.30;99.90;;;;;;5038964;28;20552;-69
2024/03/08 06:36:51;;;;;;;23.58;10.73;;;1.30;99.90;;;;;;5038555;28;20021;-68
2024/03/08 06:39:17;;;;;;;20.03;9.97;;;1.30;99.90;;;;;;5035903;28;20302;-68
2024/03/08 06:41:44;;;;;;;21.42;10.40;;;1.30;99.90;;;;;;5040699;28;20116;-70
2024/03/08 06:44:10;;;;;;;20.25;11.25;;;1.30;99.90;;;;;;5042214;28;20237;-70
2024/03/08 06:46:45;;;;;;;22.17;11.65;;;1.40;99.90;;;;;;5041031;28;20434;-69
2024/03/08 06:49:11;;;;;;;21.80;11.50;;;1.40;99.90;;;;;;5044644;28;20021;-67
2024/03/08 06:51:36;;;;;;;27.17;13.07;;;1.40;99.90;;;;;;5046136;28;20021;-69
2024/03/08 06:54:08;;;;;;;24.08;12.77;;;1.40;99.90;;;;;;5045179;28;20068;-67
2024/03/08 06:56:34;;;;;;;23.20;11.88;;;1.40;99.90;;;;;;5043741;28;20025;-69
2024/03/08 06:59:00;;;;;;;20.83;11.20;;;1.40;99.90;;;;;;5044131;28;20056;-68
2024/03/08 07:01:25;;;;;;;17.23;8.20;;;1.40;99.90;;;;;;5040661;28;20033;-69
2024/03/08 07:03:52;;;;;;;22.95;11.25;;;1.40;99.90;;;;;;5048664;28;20052;-68
2024/03/08 07:06:19;;;;;;;24.27;12.13;;;1.40;99.90;;;;;;5048180;28;20144;-69
2024/03/08 07:08:45;;;;;;;24.15;10.50;;;1.50;99.90;;;;;;5052024;28;20100;-69
2024/03/08 07:11:11;;;;;;;22.25;11.40;;;1.50;99.90;;;;;;5051049;28;20070;-70
2024/03/08 07:13:38;;;;;;;26.75;12.77;;;1.50;99.90;;;;;;5047987;28;20044;-72
2024/03/08 07:16:07;;;;;;;23.70;11.45;;;1.50;99.90;;;;;;5052385;28;20032;-71
2024/03/08 07:18:43;;;;;;;21.90;11.43;;;1.50;99.90;;;;;;5054578;28;20113;-72
2024/03/08 07:21:12;;;;;;;21.35;10.35;;;1.50;99.90;;;;;;5051010;28;20029;-71
2024/03/08 07:23:53;;;;;;;;;;;1.60;99.90;;;;;;5053655;28;20522;-71
2024/03/08 07:26:20;;;;;;;19.45;10.35;;;1.60;99.90;;;;;;5053427;28;19947;-71
2024/03/08 07:28:46;;;;;;;23.17;11.48;;;1.60;99.90;;;;;;5055203;28;20247;-71
2024/03/08 07:33:38;;;;;;;20.95;10.63;;;1.60;99.90;;;;;;5052650;28;20069;-70
2024/03/08 07:36:04;;;;;;;19.23;10.43;;;1.60;99.90;;;;;;5056897;28;20047;-69
2024/03/08 07:38:30;;;;;;;25.05;12.80;;;1.60;99.90;;;;;;5054430;28;20047;-69
2024/03/08 07:40:57;;;;;;;24.05;10.90;;;1.70;99.90;;;;;;5054600;28;20021;-71
2024/03/08 07:43:22;;;;;;;25.02;12.02;;;1.80;99.90;;;;;;5061458;28;20043;-71
2024/03/08 07:45:48;;;;;;;24.88;10.90;;;1.70;99.90;;;;;;5058750;28;20029;-69
2024/03/08 07:48:14;;;;;;;27.33;14.10;;;1.70;99.90;;;;;;5058950;28;20060;-70
2024/03/08 07:50:40;;;;;;;24.08;11.77;;;1.70;99.90;;;;;;5059676;28;20489;-70
2024/03/08 07:53:07;;;;;;;25.98;11.88;;;1.70;99.90;;;;;;5046364;28;20045;-68
2024/03/08 07:55:35;;;;;;;25.33;12.83;;;1.80;99.90;;;;;;5045893;28;20056;-68
2024/03/08 07:58:04;;;;;;;20.70;12.07;;;1.80;99.90;;;;;;5038913;28;20792;-68
2024/03/08 08:00:31;;;;;;;26.95;12.13;;;1.80;99.90;;;;;;5040139;28;20037;-68
2024/03/08 08:02:57;;;;;;;30.38;13.65;;;1.80;99.90;;;;;;5041019;28;20024;-68
2024/03/08 08:05:22;;;;;;;27.45;12.32;;;1.90;99.90;;;;;;5044520;28;20029;-68
2024/03/08 08:07:49;;;;;;;30.40;12.55;;;1.90;99.90;;;;;;5041859;28;20074;-68
2024/03/08 08:10:21;;;;;;;24.63;11.00;;;1.80;99.90;;;;;;5045987;28;20115;-69
2024/03/08 08:12:48;;;;;;;22.75;10.68;;;1.80;99.90;;;;;;5045245;28;20021;-68
2024/03/08 08:15:15;;;;;;;26.52;12.73;;;1.80;99.90;;;;;;5046495;28;20025;-67
2024/03/08 08:17:49;;;;;;;30.48;13.98;;;1.80;99.90;;;;;;5042818;28;20025;-67
2024/03/08 08:20:15;;;;;;;23.15;11.65;;;1.90;99.90;;;;;;5037833;28;20461;-67
2024/03/08 08:22:42;;;;;;;27.48;14.18;;;1.90;99.90;;;;;;5043624;28;20033;-68
2024/03/08 08:25:09;;;;;;;24.88;11.68;;;1.90;99.90;;;;;;5043405;28;20037;-67
2024/03/08 08:27:38;;;;;;;30.73;14.70;;;2.00;99.90;;;;;;5045529;28;20037;-67
2024/03/08 08:30:07;;;;;;;29.52;13.68;;;1.90;99.90;;;;;;5039091;28;20052;-66
2024/03/08 08:32:37;;;;;;;24.83;12.38;;;2.00;99.90;;;;;;5043967;28;20033;-70
2024/03/08 08:35:04;;;;;;;24.95;12.77;;;2.00;99.90;;;;;;5044565;28;20096;-68
2024/03/08 08:37:31;;;;;;;21.23;11.88;;;2.00;99.90;;;;;;5044511;28;20450;-68
2024/03/08 08:39:57;;;;;;;26.08;13.30;;;2.10;99.90;;;;;;5041778;28;20611;-67
2024/03/08 08:42:24;;;;;;;27.48;13.60;;;2.20;99.90;;;;;;5044470;28;20391;-68
2024/03/08 08:44:50;;;;;;;32.10;14.38;;;2.20;99.90;;;;;;5047091;28;20436;-67
2024/03/08 08:47:18;;;;;;;28.67;14.77;;;2.20;99.90;;;;;;5043570;28;20398;-67
2024/03/08 08:49:46;;;;;;;29.92;12.88;;;2.30;99.90;;;;;;5042454;28;20057;-68
2024/03/08 08:52:12;;;;;;;25.75;12.48;;;2.40;99.90;;;;;;5038926;28;20059;-67
2024/03/08 08:54:38;;;;;;;28.23;14.13;;;2.40;99.90;;;;;;5044342;28;20021;-68
2024/03/08 08:57:07;;;;;;;25.63;12.52;;;2.40;99.90;;;;;;5044868;28;20605;-67
2024/03/08 08:59:36;;;;;;;24.33;11.50;;;2.30;99.90;;;;;;5042714;28;20458;-67
2024/03/08 09:02:03;;;;;;;;;;;2.30;99.90;;;;;;5038392;28;20414;-67
2024/03/08 09:04:30;;;;;;;23.23;11.32;;;2.40;99.90;;;;;;5042992;28;19908;-67
2024/03/08 09:06:56;;;;;;;32.75;13.30;;;2.50;99.90;;;;;;5044977;28;20123;-66
2024/03/08 09:09:22;;;;;;;34.13;13.20;;;2.50;99.90;;;;;;5039282;28;20032;-68
2024/03/08 09:11:49;;;;;;;25.58;12.15;;;2.50;99.90;;;;;;5040136;28;20021;-67
2024/03/08 09:14:15;;;;;;;27.83;12.63;;;2.50;99.90;;;;;;5045080;28;20068;-67
2024/03/08 09:16:40;;;;;;;21.55;10.10;;;2.60;99.90;;;;;;5036194;28;20566;-67
2024/03/08 09:19:06;;;;;;;25.15;13.38;;;2.70;99.90;;;;;;5044220;28;20025;-68
2024/03/08 09:21:34;;;;;;;30.25;13.90;;;2.80;99.90;;;;;;5040078;28;20467;-70
2024/03/08 09:24:00;;;;;;;25.23;12.00;;;2.90;99.90;;;;;;5042215;28;20036;-69
2024/03/08 09:26:26;;;;;;;21.95;11.00;;;2.70;99.90;;;;;;5043021;28;20668;-67
2024/03/08 09:28:52;;;;;;;29.63;13.52;;;2.60;99.90;;;;;;5040563;28;20041;-68
2024/03/08 09:31:18;;;;;;;27.73;13.55;;;2.50;99.90;;;;;;5033018;28;20777;-70
2024/03/08 09:33:43;;;;;;;26.67;12.15;;;2.60;99.90;;;;;;5020523;28;20057;-71
2024/03/08 09:36:09;;;;;;;24.13;10.52;;;2.70;99.90;;;;;;5022327;28;20079;-69
2024/03/08 09:38:34;;;;;;;30.98;13.82;;;2.80;99.90;;;;;;5021339;28;20037;-70
2024/03/08 09:41:04;;;;;;;27.08;11.35;;;2.90;99.90;;;;;;5024091;28;20039;-67
2024/03/08 09:43:30;;;;;;;30.17;12.98;;;2.90;99.90;;;;;;5020976;28;20033;-67
2024/03/08 09:46:00;;;;;;;26.27;12.35;;;3.10;99.90;;;;;;5024052;28;20527;-67
2024/03/08 09:48:26;;;;;;;22.48;11.40;;;3.10;99.90;;;;;;5020761;28;20057;-68
2024/03/08 09:50:52;;;;;;;31.50;14.35;;;3.20;99.90;;;;;;5019910;28;20430;-67
2024/03/08 09:53:18;;;;;;;25.75;12.15;;;3.30;99.90;;;;;;5018112;28;20499;-67
2024/03/08 09:55:49;;;;;;;32.65;13.43;;;3.50;99.90;;;;;;5021728;28;20044;-69
2024/03/08 09:58:17;;;;;;;39.40;18.27;;;3.70;99.90;;;;;;5022890;28;20022;-67
2024/03/08 10:00:43;;;;;;;35.40;16.55;;;3.70;99.90;;;;;;5022775;28;20510;-67
2024/03/08 10:03:10;;;;;;;36.13;16.08;;;3.40;99.90;;;;;;5039662;28;20025;-68
2024/03/08 10:05:36;;;;;;;30.35;12.85;;;3.30;99.90;;;;;;5039516;28;20025;-68
2024/03/08 10:08:02;;;;;;;31.98;16.25;;;3.50;99.90;;;;;;5040146;28;20504;-67
2024/03/08 10:10:28;;;;;;;32.67;14.70;;;3.50;99.90;;;;;;5042427;28;20378;-68
2024/03/08 10:12:55;;;;;;;31.08;13.70;;;3.60;99.90;;;;;;5041690;28;20025;-68
2024/03/08 10:15:21;;;;;;;32.83;16.02;;;3.60;99.90;;;;;;5040194;28;20079;-69
2024/03/08 10:17:46;;;;;;;29.50;14.88;;;3.60;99.90;;;;;;5041456;28;20056;-68
2024/03/08 10:20:15;;;;;;;26.88;13.05;;;3.60;99.90;;;;;;5037484;28;20535;-69
2024/03/08 10:22:45;;;;;;;28.08;14.02;;;3.70;99.90;;;;;;5041459;28;20072;-67
2024/03/08 10:25:14;;;;;;;29.40;14.05;;;3.80;99.90;;;;;;5040132;28;20037;-68
2024/03/08 10:27:43;;;;;;;30.85;15.60;;;3.70;99.90;;;;;;5040746;28;20028;-68
2024/03/08 10:30:10;;;;;;;;;;;3.90;99.90;;;;;;5044027;28;20094;-68
2024/03/08 10:32:36;;;;;;;24.15;13.95;;;3.90;99.90;;;;;;5042137;28;19916;-69
2024/03/08 10:35:02;;;;;;;30.27;14.82;;;4.10;99.90;;;;;;5038444;28;20445;-68
2024/03/08 10:37:29;;;;;;;30.20;14.35;;;4.20;99.90;;;;;;5041166;28;20454;-69
2024/03/08 10:40:10;;;;;;;26.60;12.88;;;4.10;99.90;;;;;;5038519;28;20017;-68
2024/03/08 10:42:40;;;;;;;27.05;13.52;;;4.00;99.90;;;;;;5040723;28;20021;-69
2024/03/08 10:45:12;;;;;;;30.83;13.57;;;4.10;99.90;;;;;;5041610;28;20525;-68
2024/03/08 10:47:41;;;;;;;23.50;11.65;;;4.10;99.90;;;;;;5041663;28;20482;-68
2024/03/08 10:50:21;;;;;;;22.63;11.60;;;4.00;99.90;;;;;;5041354;28;20540;-66
2024/03/08 10:52:50;;;;;;;26.67;13.23;;;4.00;99.90;;;;;;5040382;28;20194;-67
2024/03/08 10:55:20;;;;;;;24.08;12.68;;;4.00;99.90;;;;;;5039732;28;20085;-67
2024/03/08 10:57:51;;;;;;;22.95;10.90;;;4.30;99.90;;;;;;5037790;28;20531;-68
2024/03/08 11:00:18;;;;;;;27.42;14.30;;;4.50;99.90;;;;;;5039020;28;20394;-67
2024/03/08 11:02:45;;;;;;;23.73;11.53;;;4.70;99.90;;;;;;5013110;28;20047;-68
2024/03/08 11:05:35;;;;;;;21.75;11.02;;;4.90;99.90;;;;;;5037628;28;20799;-68
2024/03/08 11:08:03;;;;;;;20.67;11.82;;;4.90;99.90;;;;;;5037721;28;20040;-67
2024/03/08 11:10:29;;;;;;;27.85;12.38;;;4.80;99.90;;;;;;5040998;28;20624;-70
2024/03/08 11:13:04;;;;;;;25.55;12.68;;;5.00;99.90;;;;;;5042827;28;20021;-68
2024/03/08 11:15:30;;;;;;;23.38;11.93;;;5.00;99.90;;;;;;5044392;28;20386;-70
2024/03/08 11:17:59;;;;;;;23.00;12.07;;;5.20;99.90;;;;;;5043169;28;20033;-69
2024/03/08 11:20:26;;;;;;;26.80;12.52;;;5.40;99.90;;;;;;5043260;28;20028;-70
2024/03/08 11:22:54;;;;;;;22.98;11.07;;;5.50;99.90;;;;;;5044422;28;20687;-68
2024/03/08 11:25:45;;;;;;;25.97;12.77;;;5.50;99.90;;;;;;5045583;28;20025;-68
2024/03/08 11:28:20;;;;;;;25.15;12.45;;;5.60;99.90;;;;;;5042799;28;20490;-68
2024/03/08 11:31:01;;;;;;;25.17;11.60;;;5.80;99.90;;;;;;5043956;28;20021;-68
2024/03/08 11:33:29;;;;;;;26.90;12.65;;;5.90;99.90;;;;;;5037012;28;20032;-67
2024/03/08 11:36:21;;;;;;;27.77;12.75;;;5.90;99.90;;;;;;5043874;28;20071;-70
2024/03/08 11:38:48;;;;;;;25.38;12.40;;;6.00;99.90;;;;;;5043798;28;20029;-69
2024/03/08 11:41:15;;;;;;;26.38;13.50;;;6.00;99.90;;;;;;5041527;28;20049;-70
2024/03/08 11:43:47;;;;;;;25.02;13.27;;;6.40;99.90;;;;;;5042718;28;20610;-72
2024/03/08 11:46:14;;;;;;;31.77;14.73;;;6.50;99.90;;;;;;5045754;28;20075;-68
2024/03/08 11:48:43;;;;;;;25.05;11.82;;;6.50;99.90;;;;;;5040928;28;20593;-67
2024/03/08 11:51:13;;;;;;;21.23;11.30;;;6.60;99.90;;;;;;5042725;28;20017;-68
2024/03/08 11:53:40;;;;;;;27.67;13.48;;;6.50;99.90;;;;;;5042249;28;20121;-68
2024/03/08 11:56:14;;;;;;;26.95;12.23;;;6.60;99.90;;;;;;5043643;28;20036;-68
2024/03/08 11:58:40;;;;;;;18.90;10.75;;;6.70;99.90;;;;;;5046632;28;20071;-69
2024/03/08 12:01:13;;;;;;;22.38;10.95;;;6.60;99.90;;;;;;5043542;28;20387;-68
2024/03/08 12:03:42;;;;;;;23.38;12.15;;;6.60;99.90;;;;;;5042529;28;20024;-68
2024/03/08 12:06:09;;;;;;;24.48;12.80;;;6.80;99.90;;;;;;5039038;28;20032;-69
2024/03/08 12:08:36;;;;;;;23.77;13.43;;;6.80;99.90;;;;;;5044201;28;20513;-68
2024/03/08 12:11:04;;;;;;;21.83;12.23;;;6.80;99.90;;;;;;5039807;28;20029;-69
2024/03/08 12:13:34;;;;;;;22.92;12.93;;;6.90;99.90;;;;;;5043583;28;20040;-70
2024/03/08 12:16:04;;;;;;;27.52;13.18;;;7.10;99.90;;;;;;5043252;28;20746;-70
2024/03/08 12:18:34;;;;;;;24.85;13.27;;;7.10;99.90;;;;;;5045025;28;20037;-69
2024/03/08 12:21:21;;;;;;;21.88;12.45;;;7.10;99.90;;;;;;5038269;28;20028;-69
2024/03/08 12:23:53;;;;;;;20.20;11.93;;;7.20;99.90;;;;;;5043554;28;20039;-70
2024/03/08 12:26:25;;;;;;;19.52;10.73;;;7.30;99.90;;;;;;5037956;28;20493;-69
2024/03/08 12:28:52;;;;;;;24.15;13.27;;;7.20;99.90;;;;;;5039994;28;20649;-69
2024/03/08 12:31:20;;;;;;;22.02;12.00;;;7.20;99.90;;;;;;5042306;28;20049;-69
2024/03/08 12:33:49;;;;;;;23.45;10.73;;;7.20;99.90;;;;;;5043375;28;20281;-69
2024/03/08 12:36:16;;;;;;;21.27;11.10;;;7.40;99.90;;;;;;5042492;28;20553;-71
2024/03/08 12:38:49;;;;;;;22.60;11.52;;;7.50;99.90;;;;;;5044069;28;20025;-69
2024/03/08 12:41:19;;;;;;;23.73;11.30;;;7.50;99.90;;;;;;5042484;28;20370;-69
2024/03/08 12:43:48;;;;;;;21.75;10.98;;;7.50;99.90;;;;;;5043175;28;20090;-71
2024/03/08 12:46:15;;;;;;;21.63;11.35;;;7.60;99.90;;;;;;5043948;28;20028;-70
2024/03/08 12:48:41;;;;;;;22.85;11.20;;;7.60;99.90;;;;;;5042211;28;20025;-69
2024/03/08 12:51:07;;;;;;;20.75;11.05;;;7.70;99.90;;;;;;5041587;28;20147;-69